Time;durP1;ratioP1;P1;durP2;ratioP2;P2;SDS_P1;SDS_P2;PMS_P1;PMS_P2;Temp;Humidity;BMP_temperature;BMP_pressure;BME280_temperature;BME280_humidity;BME280_pressure;Samples;Min_cycle;Max_cycle;Signal;HPM_P1;HPM_P2
2021/01/28 00:00:40;;;;;;;22.42;8.77;;;;;;;;;;4975241;28;20027;-75
2021/01/28 00:03:08;;;;;;;19.33;7.18;;;;;;;;;;4994058;28;20037;-78
2021/01/28 00:05:35;;;;;;;25.50;8.13;;;;;;;;;;4975872;28;20035;-76
2021/01/28 00:08:02;;;;;;;15.52;6.68;;;;;;;;;;4974574;28;20029;-76
2021/01/28 00:10:29;;;;;;;17.15;6.43;;;;;;;;;;4974365;28;20038;-77
2021/01/28 00:12:55;;;;;;;20.25;6.70;;;;;;;;;;4973480;28;20039;-79
2021/01/28 00:15:23;;;;;;;19.25;8.07;;;;;;;;;;4974290;28;20047;-79
2021/01/28 00:17:50;;;;;;;21.80;7.70;;;;;;;;;;4972964;28;20037;-78
2021/01/28 00:20:19;;;;;;;20.58;7.40;;;;;;;;;;4975716;28;20105;-77
2021/01/28 00:22:46;;;;;;;22.20;7.32;;;;;;;;;;4977110;28;20030;-77
2021/01/28 00:25:14;;;;;;;19.98;7.05;;;;;;;;;;4977489;28;20480;-78
2021/01/28 00:27:41;;;;;;;16.75;6.78;;;;;;;;;;4978745;28;20023;-77
2021/01/28 00:30:08;;;;;;;22.52;7.22;;;;;;;;;;4979056;28;20097;-93
2021/01/28 00:32:34;;;;;;;17.25;7.43;;;;;;;;;;4980168;28;20073;-86
2021/01/28 00:35:00;;;;;;;19.13;6.57;;;;;;;;;;4978315;28;20053;-83
2021/01/28 00:37:26;;;;;;;20.33;7.15;;;;;;;;;;4979398;28;20062;-92
2021/01/28 00:39:52;;;;;;;19.70;8.05;;;;;;;;;;4979149;28;20122;-78
2021/01/28 00:42:19;;;;;;;21.73;7.90;;;;;;;;;;4977775;28;20031;-76
2021/01/28 00:44:45;;;;;;;20.08;7.45;;;;;;;;;;4976854;28;20476;-78
2021/01/28 00:47:11;;;;;;;18.95;8.05;;;;;;;;;;4976681;28;20038;-78
2021/01/28 00:49:37;;;;;;;18.08;7.07;;;;;;;;;;4978813;28;20075;-91
2021/01/28 00:52:03;;;;;;;20.25;7.18;;;;;;;;;;4985516;28;20035;-78
2021/01/28 00:54:29;;;;;;;15.82;5.32;;;;;;;;;;4976635;28;20030;-77
2021/01/28 00:56:55;;;;;;;17.15;6.93;;;;;;;;;;4977002;28;20022;-79
2021/01/28 00:59:22;;;;;;;15.20;6.65;;;;;;;;;;4980312;28;20030;-78
2021/01/28 01:01:49;;;;;;;16.83;6.22;;;;;;;;;;4977587;28;20027;-78
2021/01/28 01:04:15;;;;;;;17.40;6.65;;;;;;;;;;4978207;28;20297;-79
2021/01/28 01:06:41;;;;;;;19.25;6.35;;;;;;;;;;4978894;28;20023;-94
2021/01/28 01:09:07;;;;;;;13.13;6.03;;;;;;;;;;4979100;28;20038;-86
2021/01/28 01:11:33;;;;;;;17.73;7.13;;;;;;;;;;4976208;28;20026;-77
2021/01/28 01:14:00;;;;;;;15.05;6.50;;;;;;;;;;4975977;28;20077;-78
2021/01/28 01:16:26;;;;;;;17.80;5.85;;;;;;;;;;4977434;28;20059;-78
2021/01/28 01:18:52;;;;;;;19.90;6.93;;;;;;;;;;4977308;28;20058;-78
2021/01/28 01:21:19;;;;;;;15.82;6.35;;;;;;;;;;4977828;28;20022;-80
2021/01/28 01:23:45;;;;;;;17.35;6.68;;;;;;;;;;4975973;28;20476;-78
2021/01/28 01:26:11;;;;;;;19.50;7.13;;;;;;;;;;4977272;28;20038;-78
2021/01/28 01:28:38;;;;;;;14.43;6.80;;;;;;;;;;4975933;28;20386;-78
2021/01/28 01:31:04;;;;;;;16.85;7.32;;;;;;;;;;4975504;28;20034;-78
2021/01/28 01:33:31;;;;;;;12.45;5.78;;;;;;;;;;4975146;28;20117;-78
2021/01/28 01:35:57;;;;;;;19.63;6.80;;;;;;;;;;4977201;28;20495;-78
2021/01/28 01:38:23;;;;;;;30.00;7.93;;;;;;;;;;4977151;28;20495;-79
2021/01/28 01:40:55;;;;;;;20.48;7.28;;;;;;;;;;4976898;28;20109;-79
2021/01/28 01:43:21;;;;;;;15.05;6.20;;;;;;;;;;4975685;28;20027;-79
2021/01/28 01:45:49;;;;;;;15.10;7.30;;;;;;;;;;4976838;28;20034;-79
2021/01/28 01:48:18;;;;;;;18.48;7.50;;;;;;;;;;4977334;28;20038;-78
2021/01/28 01:50:51;;;;;;;15.25;6.50;;;;;;;;;;4975620;28;20085;-78
2021/01/28 01:53:28;;;;;;;19.00;6.43;;;;;;;;;;4977216;28;20395;-78
2021/01/28 01:56:01;;;;;;;16.23;7.20;;;;;;;;;;4975470;28;20113;-79
2021/01/28 01:58:37;;;;;;;17.35;5.47;;;;;;;;;;4976671;28;20444;-79
2021/01/28 02:01:04;;;;;;;15.73;6.80;;;;;;;;;;4976546;28;20368;-79
2021/01/28 02:03:32;;;;;;;17.77;7.22;;;;;;;;;;4975394;28;20037;-79
2021/01/28 02:06:05;;;;;;;17.17;6.57;;;;;;;;;;4975335;28;20027;-78
2021/01/28 02:08:31;;;;;;;13.20;5.57;;;;;;;;;;4975341;28;20081;-79
2021/01/28 02:10:57;;;;;;;17.92;6.80;;;;;;;;;;4976444;28;20388;-79
2021/01/28 02:13:24;;;;;;;18.23;7.38;;;;;;;;;;4974822;28;20039;-79
2021/01/28 02:15:51;;;;;;;15.60;6.85;;;;;;;;;;4976728;28;20365;-79
2021/01/28 02:18:17;;;;;;;19.00;6.85;;;;;;;;;;4976829;28;20397;-79
2021/01/28 02:20:58;;;;;;;19.17;6.53;;;;;;;;;;4976252;28;20471;-79
2021/01/28 02:23:30;;;;;;;12.55;5.47;;;;;;;;;;4974999;28;20035;-79
2021/01/28 02:25:57;;;;;;;19.85;6.32;;;;;;;;;;4974905;28;20125;-79
2021/01/28 02:28:23;;;;;;;20.52;7.20;;;;;;;;;;4974919;28;20243;-79
2021/01/28 02:30:52;;;;;;;21.20;6.18;;;;;;;;;;4974827;28;20551;-79
2021/01/28 02:33:41;;;;;;;14.63;5.35;;;;;;;;;;4974935;28;20432;-78
2021/01/28 02:36:07;;;;;;;19.63;7.50;;;;;;;;;;4974723;28;20062;-78
2021/01/28 02:38:34;;;;;;;22.38;8.55;;;;;;;;;;4976313;28;20058;-79
2021/01/28 02:41:01;;;;;;;19.98;7.45;;;;;;;;;;4975876;28;20084;-79
2021/01/28 02:43:28;;;;;;;21.05;8.40;;;;;;;;;;4974340;28;20031;-79
2021/01/28 02:46:03;;;;;;;28.92;9.95;;;;;;;;;;4975841;28;20523;-79
2021/01/28 02:48:29;;;;;;;22.48;8.10;;;;;;;;;;4974467;28;20146;-79
2021/01/28 02:50:55;;;;;;;26.05;8.73;;;;;;;;;;4974496;28;20023;-77
2021/01/28 02:53:21;;;;;;;27.77;8.90;;;;;;;;;;4976548;28;20065;-78
2021/01/28 02:55:48;;;;;;;19.88;8.50;;;;;;;;;;4974448;28;20031;-77
2021/01/28 02:58:14;;;;;;;23.40;9.05;;;;;;;;;;4975561;28;20034;-79
2021/01/28 03:00:41;;;;;;;18.75;8.18;;;;;;;;;;4974250;28;20603;-79
2021/01/28 03:03:08;;;;;;;22.38;9.35;;;;;;;;;;4975970;28;20062;-79
2021/01/28 03:05:35;;;;;;;30.90;10.68;;;;;;;;;;4975320;28;20027;-78
2021/01/28 03:08:01;;;;;;;26.65;10.52;;;;;;;;;;4975339;28;20031;-78
2021/01/28 03:10:28;;;;;;;22.48;9.65;;;;;;;;;;4975221;28;20031;-78
2021/01/28 03:12:54;;;;;;;20.83;9.25;;;;;;;;;;4975236;28;20050;-79
2021/01/28 03:15:23;;;;;;;20.35;9.13;;;;;;;;;;4973820;28;20142;-79
2021/01/28 03:17:50;;;;;;;25.55;9.43;;;;;;;;;;4975246;28;20110;-78
2021/01/28 03:20:16;;;;;;;19.10;8.30;;;;;;;;;;4973931;28;20022;-79
2021/01/28 03:22:43;;;;;;;20.35;9.10;;;;;;;;;;4975078;28;20475;-78
2021/01/28 03:25:11;;;;;;;17.45;7.97;;;;;;;;;;4975095;28;20089;-79
2021/01/28 03:27:37;;;;;;;28.27;8.85;;;;;;;;;;4974990;28;20118;-77
2021/01/28 03:30:11;;;;;;;19.75;8.75;;;;;;;;;;4974983;28;20420;-79
2021/01/28 03:32:38;;;;;;;19.52;7.25;;;;;;;;;;4973573;28;20043;-79
2021/01/28 03:35:05;;;;;;;23.33;7.95;;;;;;;;;;4974883;28;20077;-79
2021/01/28 03:37:31;;;;;;;27.90;11.07;;;;;;;;;;4974929;28;20031;-79
2021/01/28 03:39:57;;;;;;;23.23;11.80;;;;;;;;;;4974805;28;20027;-79
2021/01/28 03:42:24;;;;;;;31.38;10.30;;;;;;;;;;4975293;28;20395;-80
2021/01/28 03:44:50;;;;;;;30.23;11.98;;;;;;;;;;4974759;28;20014;-79
2021/01/28 03:47:17;;;;;;;25.95;11.18;;;;;;;;;;4973463;28;20538;-79
2021/01/28 03:49:44;;;;;;;23.17;10.13;;;;;;;;;;4973505;28;20476;-78
2021/01/28 03:52:11;;;;;;;29.73;11.45;;;;;;;;;;4974652;28;20031;-79
2021/01/28 03:54:37;;;;;;;30.00;11.65;;;;;;;;;;4975263;28;20038;-94
2021/01/28 03:57:05;;;;;;;30.35;12.73;;;;;;;;;;4974636;28;20019;-93
2021/01/28 03:59:31;;;;;;;31.50;12.40;;;;;;;;;;4974173;28;20030;-79
2021/01/28 04:01:57;;;;;;;29.00;11.75;;;;;;;;;;4974579;28;20030;-79
2021/01/28 04:04:23;;;;;;;24.98;10.77;;;;;;;;;;4973707;28;20042;-91
2021/01/28 04:06:49;;;;;;;32.97;11.30;;;;;;;;;;4973393;28;20027;-80
2021/01/28 04:09:15;;;;;;;33.22;12.95;;;;;;;;;;4975615;28;20034;-78
2021/01/28 04:11:41;;;;;;;35.15;12.68;;;;;;;;;;4974438;28;20027;-77
2021/01/28 04:14:07;;;;;;;28.40;13.07;;;;;;;;;;4972936;28;20059;-78
2021/01/28 04:16:33;;;;;;;31.63;12.40;;;;;;;;;;4973236;28;20019;-78
2021/01/28 04:19:00;;;;;;;28.48;12.98;;;;;;;;;;4973109;28;20035;-79
2021/01/28 04:21:26;;;;;;;25.92;10.88;;;;;;;;;;4974464;28;20023;-79
2021/01/28 04:23:52;;;;;;;29.92;12.20;;;;;;;;;;4974412;28;20026;-79
2021/01/28 04:26:19;;;;;;;23.10;11.32;;;;;;;;;;4974442;28;20030;-79
2021/01/28 04:28:46;;;;;;;28.42;11.70;;;;;;;;;;4973073;28;20121;-79
2021/01/28 04:31:13;;;;;;;28.30;11.43;;;;;;;;;;4973078;28;20431;-78
2021/01/28 04:33:39;;;;;;;26.02;10.30;;;;;;;;;;4974281;28;20113;-79
2021/01/28 04:36:06;;;;;;;25.98;9.55;;;;;;;;;;4974312;28;20416;-79
2021/01/28 04:38:33;;;;;;;22.67;10.00;;;;;;;;;;4974816;28;20023;-79
2021/01/28 04:41:09;;;;;;;25.42;10.55;;;;;;;;;;4974251;28;20031;-79
2021/01/28 04:43:35;;;;;;;26.70;8.90;;;;;;;;;;4974415;28;20051;-78
2021/01/28 04:46:03;;;;;;;18.85;8.00;;;;;;;;;;4972968;28;20035;-78
2021/01/28 04:48:31;;;;;;;17.75;6.90;;;;;;;;;;4972898;28;20018;-78
2021/01/28 04:50:59;;;;;;;24.95;9.40;;;;;;;;;;4972919;28;20523;-79
2021/01/28 04:53:51;;;;;;;24.02;8.77;;;;;;;;;;4974037;28;20039;-78
2021/01/28 04:56:21;;;;;;;20.15;7.68;;;;;;;;;;4944779;28;20098;-79
2021/01/28 04:58:48;;;;;;;18.92;8.05;;;;;;;;;;4972788;28;20029;-78
2021/01/28 05:01:15;;;;;;;22.73;8.95;;;;;;;;;;4972822;28;20522;-79
2021/01/28 05:03:46;;;;;;;29.85;8.80;;;;;;;;;;4974342;28;20061;-79
2021/01/28 05:06:13;;;;;;;19.02;7.82;;;;;;;;;;4973657;28;20038;-79
2021/01/28 05:08:39;;;;;;;20.33;8.30;;;;;;;;;;4976374;28;20391;-79
2021/01/28 05:11:18;;;;;;;18.48;8.40;;;;;;;;;;4977636;28;20052;-79
2021/01/28 05:13:44;;;;;;;18.15;8.15;;;;;;;;;;4976189;28;20170;-79
2021/01/28 05:16:28;;;;;;;16.42;8.27;;;;;;;;;;4977528;28;20022;-79
2021/01/28 05:18:57;;;;;;;18.63;8.70;;;;;;;;;;4977902;28;20484;-93
2021/01/28 05:21:25;;;;;;;16.60;7.68;;;;;;;;;;4976535;28;20038;-79
2021/01/28 05:23:59;;;;;;;22.42;8.15;;;;;;;;;;4976618;28;20034;-78
2021/01/28 05:26:44;;;;;;;23.17;7.50;;;;;;;;;;4976258;28;20035;-78
2021/01/28 05:29:21;;;;;;;18.50;8.38;;;;;;;;;;4976534;28;20019;-78
2021/01/28 05:31:47;;;;;;;23.67;8.48;;;;;;;;;;4976056;28;20396;-78
2021/01/28 05:34:19;;;;;;;25.23;9.25;;;;;;;;;;4976076;28;20039;-77
2021/01/28 05:36:53;;;;;;;24.60;9.75;;;;;;;;;;4975969;28;20081;-77
2021/01/28 05:39:27;;;;;;;22.95;9.02;;;;;;;;;;4977722;28;20026;-82
2021/01/28 05:42:04;;;;;;;24.45;9.75;;;;;;;;;;4976504;28;20440;-78
2021/01/28 05:44:32;;;;;;;24.90;9.38;;;;;;;;;;4977229;28;20034;-78
2021/01/28 05:47:03;;;;;;;19.40;8.27;;;;;;;;;;4977349;28;20033;-92
2021/01/28 05:49:30;;;;;;;18.98;8.43;;;;;;;;;;4975714;28;20081;-79
2021/01/28 05:51:56;;;;;;;20.50;9.30;;;;;;;;;;4976956;28;20035;-77
2021/01/28 05:54:24;;;;;;;20.73;8.43;;;;;;;;;;4976266;28;20030;-94
2021/01/28 05:57:07;;;;;;;19.33;8.52;;;;;;;;;;4977216;28;20050;-95
2021/01/28 05:59:42;;;;;;;17.87;8.27;;;;;;;;;;4978306;28;20027;-80
2021/01/28 06:02:11;;;;;;;27.42;9.65;;;;;;;;;;4975960;28;20266;-91
2021/01/28 06:04:43;;;;;;;22.58;8.85;;;;;;;;;;4976362;28;20034;-79
2021/01/28 06:07:15;;;;;;;23.20;10.48;;;;;;;;;;4978462;28;20042;-79
2021/01/28 06:10:00;;;;;;;32.08;11.25;;;;;;;;;;4975716;28;20035;-79
2021/01/28 06:12:26;;;;;;;25.55;9.50;;;;;;;;;;4975131;28;20030;-76
2021/01/28 06:15:01;;;;;;;30.77;11.82;;;;;;;;;;4976236;28;20098;-77
2021/01/28 06:17:50;;;;;;;26.17;10.73;;;;;;;;;;4974655;28;20034;-78
2021/01/28 06:20:24;;;;;;;27.92;11.40;;;;;;;;;;4975066;28;20031;-77
2021/01/28 06:22:53;;;;;;;31.83;12.32;;;;;;;;;;4974988;28;20396;-82
2021/01/28 06:25:28;;;;;;;33.03;12.13;;;;;;;;;;4973526;28;20042;-82
2021/01/28 06:28:06;;;;;;;24.38;11.07;;;;;;;;;;4974603;28;20027;-82
2021/01/28 06:30:47;;;;;;;28.73;9.50;;;;;;;;;;4974795;28;20027;-77
2021/01/28 06:33:19;;;;;;;24.60;9.98;;;;;;;;;;4976028;28;20042;-80
2021/01/28 06:35:45;;;;;;;28.20;10.55;;;;;;;;;;4974523;28;20022;-81
2021/01/28 06:38:34;;;;;;;26.42;12.57;;;;;;;;;;4975722;28;20111;-82
2021/01/28 06:41:03;;;;;;;24.38;11.75;;;;;;;;;;4974620;28;20046;-83
2021/01/28 06:43:34;;;;;;;26.25;11.85;;;;;;;;;;4974947;28;20428;-83
2021/01/28 06:46:09;;;;;;;25.80;11.80;;;;;;;;;;4974321;28;20388;-85
2021/01/28 06:48:42;;;;;;;23.35;11.15;;;;;;;;;;4975772;28;20460;-85
2021/01/28 06:51:08;;;;;;;22.85;10.35;;;;;;;;;;4975907;28;20058;-89
2021/01/28 06:53:43;;;;;;;24.02;11.00;;;;;;;;;;4974344;28;20038;-88
2021/01/28 06:56:23;;;;;;;22.48;10.35;;;;;;;;;;4974363;28;20030;-87
2021/01/28 06:59:05;;;;;;;41.38;16.58;;;;;;;;;;4974253;28;20058;-85
2021/01/28 07:01:49;;;;;;;45.95;16.08;;;;;;;;;;4975389;28;20249;-84
2021/01/28 07:04:16;;;;;;;;;;;;;;;;;;4976221;28;20468;-85
2021/01/28 07:07:00;;;;;;;28.30;10.93;;;;;;;;;;4974222;28;20286;-85
2021/01/28 07:09:49;;;;;;;27.48;12.30;;;;;;;;;;4975397;28;20041;-84
2021/01/28 07:12:19;;;;;;;30.75;11.60;;;;;;;;;;4965567;28;20388;-85
2021/01/28 07:15:04;;;;;;;28.23;12.35;;;;;;;;;;4975182;28;20069;-84
2021/01/28 07:17:35;;;;;;;29.17;10.93;;;;;;;;;;4976910;28;20154;-85
2021/01/28 07:23:35;;;;;;;26.80;12.32;;;;;;;;;;5001035;28;20104;-87
2021/01/28 07:26:07;;;;;;;40.60;14.10;;;;;;;;;;4977278;28;20038;-84
2021/01/28 07:28:33;;;;;;;42.95;15.40;;;;;;;;;;4993382;28;20096;-84
2021/01/28 07:31:08;;;;;;;29.42;13.52;;;;;;;;;;4992594;28;20542;-85
2021/01/28 07:33:40;;;;;;;36.15;13.93;;;;;;;;;;4993189;28;20038;-85
2021/01/28 07:36:06;;;;;;;33.45;13.88;;;;;;;;;;4994067;28;20105;-85
2021/01/28 07:38:39;;;;;;;36.13;14.82;;;;;;;;;;4994259;28;20065;-85
2021/01/28 07:41:18;;;;;;;26.45;11.43;;;;;;;;;;4993125;28;20422;-85
2021/01/28 07:43:48;;;;;;;36.22;13.63;;;;;;;;;;4994170;28;20505;-84
2021/01/28 07:46:17;;;;;;;41.92;17.85;;;;;;;;;;4992766;28;20022;-85
2021/01/28 07:48:44;;;;;;;38.22;14.50;;;;;;;;;;4993904;28;20083;-85
2021/01/28 07:51:46;;;;;;;35.30;15.73;;;;;;;;;;4993968;28;20054;-84
2021/01/28 07:54:24;;;;;;;29.10;12.75;;;;;;;;;;4914971;29;20111;-83
2021/01/28 07:56:54;;;;;;;28.35;11.38;;;;;;;;;;4984600;28;20129;-85
2021/01/28 07:59:23;;;;;;;20.23;9.50;;;;;;;;;;4992599;28;20479;-84
2021/01/28 08:01:52;;;;;;;21.65;9.35;;;;;;;;;;4992154;28;20390;-82
2021/01/28 08:04:24;;;;;;;25.17;11.55;;;;;;;;;;4992676;28;20125;-85
2021/01/28 08:06:51;;;;;;;28.38;11.95;;;;;;;;;;4992603;28;20532;-83
2021/01/28 08:09:17;;;;;;;21.75;9.82;;;;;;;;;;4992345;28;20053;-84
2021/01/28 08:11:51;;;;;;;28.70;10.70;;;;;;;;;;4993312;28;20042;-84
2021/01/28 08:14:20;;;;;;;27.23;10.45;;;;;;;;;;4993509;28;20058;-80
2021/01/28 08:16:51;;;;;;;22.27;9.98;;;;;;;;;;4992196;28;20041;-84
2021/01/28 08:19:24;;;;;;;19.83;9.77;;;;;;;;;;4993557;28;20033;-85
2021/01/28 08:22:07;;;;;;;22.90;9.57;;;;;;;;;;4992266;28;20463;-84
2021/01/28 08:24:36;;;;;;;22.77;10.38;;;;;;;;;;4993665;28;20084;-84
2021/01/28 08:27:16;;;;;;;18.52;9.13;;;;;;;;;;4992202;28;20396;-83
2021/01/28 08:29:42;;;;;;;23.83;10.55;;;;;;;;;;4992142;28;20026;-84
2021/01/28 08:32:18;;;;;;;23.90;9.32;;;;;;;;;;4992842;28;20483;-84
2021/01/28 08:34:44;;;;;;;19.13;9.02;;;;;;;;;;4993030;28;20383;-85
2021/01/28 08:37:16;;;;;;;17.60;9.63;;;;;;;;;;4991942;28;20493;-79
2021/01/28 08:39:50;;;;;;;17.80;7.93;;;;;;;;;;4992019;28;20475;-84
2021/01/28 08:42:18;;;;;;;17.20;8.27;;;;;;;;;;4994713;28;20037;-82
2021/01/28 08:44:47;;;;;;;15.77;7.88;;;;;;;;;;4996307;28;20026;-86
2021/01/28 08:47:18;;;;;;;16.08;8.07;;;;;;;;;;4996705;28;20395;-87
2021/01/28 08:49:45;;;;;;;13.98;7.70;;;;;;;;;;4996534;28;20019;-87
2021/01/28 08:52:17;;;;;;;15.00;8.02;;;;;;;;;;4996811;28;20096;-89
2021/01/28 08:54:44;;;;;;;16.27;8.52;;;;;;;;;;4997262;28;20080;-89
2021/01/28 08:57:12;;;;;;;22.08;8.82;;;;;;;;;;4998606;28;20026;-87
2021/01/28 08:59:46;;;;;;;15.60;8.75;;;;;;;;;;4999069;28;20036;-86
2021/01/28 09:02:13;;;;;;;19.48;8.57;;;;;;;;;;4998448;28;20022;-87
2021/01/28 09:04:41;;;;;;;17.33;9.10;;;;;;;;;;4997907;28;20039;-89
2021/01/28 09:07:07;;;;;;;21.40;8.73;;;;;;;;;;4998172;28;20120;-89
2021/01/28 09:09:37;;;;;;;18.30;9.02;;;;;;;;;;4998079;28;20121;-87
2021/01/28 09:12:52;;;;;;;17.13;8.30;;;;;;;;;;4999482;28;20456;-90
2021/01/28 09:15:22;;;;;;;18.95;8.63;;;;;;;;;;4990812;28;20386;-90
2021/01/28 09:17:49;;;;;;;16.55;7.43;;;;;;;;;;4983907;28;20033;-93
2021/01/28 09:23:30;;;;;;;20.50;8.23;;;;;;;;;;5143773;23;20035;-95
2021/01/28 09:29:19;;;;;;;19.52;9.50;;;;;;;;;;4984347;28;20046;-94
2021/01/28 09:34:35;;;;;;;20.27;8.23;;;;;;;;;;5025900;23;20104;-91
2021/01/28 09:37:03;;;;;;;25.48;9.02;;;;;;;;;;4984464;28;20037;-91
2021/01/28 09:39:35;;;;;;;27.30;9.32;;;;;;;;;;4982197;28;20121;-91
2021/01/28 09:42:25;;;;;;;17.50;9.18;;;;;;;;;;5001395;28;20053;-86
2021/01/28 09:44:52;;;;;;;17.63;8.45;;;;;;;;;;4985632;28;20121;-90
2021/01/28 09:47:19;;;;;;;27.27;9.57;;;;;;;;;;4988186;28;20037;-88
2021/01/28 09:49:47;;;;;;;19.05;9.45;;;;;;;;;;4986151;28;20089;-90
2021/01/28 09:52:40;;;;;;;20.73;8.63;;;;;;;;;;4985593;28;20030;-91
2021/01/28 09:55:10;;;;;;;23.73;8.95;;;;;;;;;;4982904;28;20046;-87
2021/01/28 09:57:37;;;;;;;19.50;8.73;;;;;;;;;;4982700;28;20022;-87
2021/01/28 10:00:05;;;;;;;19.63;9.00;;;;;;;;;;4981248;28;20026;-90
2021/01/28 10:02:37;;;;;;;14.07;6.75;;;;;;;;;;4984387;28;20096;-86
2021/01/28 10:05:04;;;;;;;14.52;6.70;;;;;;;;;;4985383;28;20026;-94
2021/01/28 10:07:30;;;;;;;14.00;6.65;;;;;;;;;;4984744;28;20034;-94
2021/01/28 10:09:57;;;;;;;17.88;7.03;;;;;;;;;;4983899;28;20042;-89
2021/01/28 10:12:24;;;;;;;11.40;6.13;;;;;;;;;;4982800;28;20049;-88
2021/01/28 10:14:53;;;;;;;19.23;8.88;;;;;;;;;;4982571;28;20045;-88
2021/01/28 10:17:19;;;;;;;19.50;9.20;;;;;;;;;;4990923;28;20030;-89
2021/01/28 10:19:46;;;;;;;13.82;7.13;;;;;;;;;;5003815;28;20028;-87
2021/01/28 10:22:12;;;;;;;15.63;6.88;;;;;;;;;;5002230;28;20462;-90
2021/01/28 10:24:39;;;;;;;12.30;6.30;;;;;;;;;;5002290;28;20030;-88
2021/01/28 10:27:05;;;;;;;14.38;6.78;;;;;;;;;;5018192;28;20014;-91
2021/01/28 10:29:31;;;;;;;11.77;6.45;;;;;;;;;;5000977;28;20030;-91
2021/01/28 10:31:57;;;;;;;12.40;6.80;;;;;;;;;;5017020;28;20041;-91
2021/01/28 10:34:23;;;;;;;10.45;5.63;;;;;;;;;;4998452;28;20054;-90
2021/01/28 10:36:50;;;;;;;14.85;7.03;;;;;;;;;;4998162;28;20032;-89
2021/01/28 10:39:17;;;;;;;16.05;7.30;;;;;;;;;;4998570;28;20026;-89
2021/01/28 10:41:43;;;;;;;15.95;7.32;;;;;;;;;;5000758;28;20130;-89
2021/01/28 10:44:20;;;;;;;14.40;6.75;;;;;;;;;;5027879;28;20037;-92
2021/01/28 10:46:47;;;;;;;16.70;7.80;;;;;;;;;;5013005;28;20033;-90
2021/01/28 10:49:13;;;;;;;16.15;7.53;;;;;;;;;;5000682;28;20108;-90
2021/01/28 10:51:46;;;;;;;12.40;6.30;;;;;;;;;;5001271;28;20044;-89
2021/01/28 10:54:16;;;;;;;16.98;8.50;;;;;;;;;;5004093;28;20048;-93
2021/01/28 10:56:42;;;;;;;18.30;8.25;;;;;;;;;;5001532;28;20036;-93
2021/01/28 10:59:22;;;;;;;16.27;7.63;;;;;;;;;;5001632;28;20119;-94
2021/01/28 11:01:51;;;;;;;20.38;8.15;;;;;;;;;;5017760;28;20026;-96
2021/01/28 11:04:17;;;;;;;18.08;6.75;;;;;;;;;;5016621;28;20030;-92
2021/01/28 11:06:43;;;;;;;23.13;9.57;;;;;;;;;;4998844;28;20058;-93
2021/01/28 11:09:09;;;;;;;27.73;10.85;;;;;;;;;;4998364;28;20025;-90
2021/01/28 11:11:35;;;;;;;34.58;14.07;;;;;;;;;;4982491;28;20424;-90
2021/01/28 11:14:02;;;;;;;34.20;11.77;;;;;;;;;;4999343;28;20046;-93
2021/01/28 11:16:35;;;;;;;20.48;8.05;;;;;;;;;;5000949;28;20022;-90
2021/01/28 11:19:03;;;;;;;14.75;6.32;;;;;;;;;;4997780;28;20034;-93
2021/01/28 11:21:29;;;;;;;7.90;4.88;;;;;;;;;;4982424;28;20373;-90
2021/01/28 11:23:55;;;;;;;10.85;5.75;;;;;;;;;;4977953;28;20026;-89
2021/01/28 11:26:21;;;;;;;10.18;6.22;;;;;;;;;;4978087;28;20034;-88
2021/01/28 11:28:47;;;;;;;15.95;5.82;;;;;;;;;;4977680;28;20026;-89
2021/01/28 11:31:15;;;;;;;12.25;6.07;;;;;;;;;;4979953;28;20031;-88
2021/01/28 11:33:41;;;;;;;12.48;6.00;;;;;;;;;;4978365;28;20058;-89
2021/01/28 11:36:07;;;;;;;9.43;6.25;;;;;;;;;;4977371;28;20026;-89
2021/01/28 11:38:33;;;;;;;13.05;6.43;;;;;;;;;;4978259;28;20037;-90
2021/01/28 11:41:02;;;;;;;12.95;7.03;;;;;;;;;;4977492;28;20113;-89
2021/01/28 11:43:28;;;;;;;12.80;6.47;;;;;;;;;;4979707;28;20030;-90
2021/01/28 11:45:54;;;;;;;13.60;7.28;;;;;;;;;;4978100;28;20037;-90
2021/01/28 11:48:20;;;;;;;13.30;6.45;;;;;;;;;;4979120;28;20026;-89
2021/01/28 11:50:48;;;;;;;21.55;5.57;;;;;;;;;;4980283;28;20033;-90
2021/01/28 11:53:14;;;;;;;13.23;6.30;;;;;;;;;;4978810;28;20502;-90
2021/01/28 11:55:40;;;;;;;13.43;6.57;;;;;;;;;;4978186;28;20045;-90
2021/01/28 12:01:12;;;;;;;12.25;4.82;;;;;;;;;;5008331;28;20037;-93
2021/01/28 12:03:38;;;;;;;11.27;5.95;;;;;;;;;;4996821;28;20041;-90
2021/01/28 12:06:04;;;;;;;11.43;5.97;;;;;;;;;;4987067;28;20059;-96
2021/01/28 12:08:31;;;;;;;14.43;7.95;;;;;;;;;;4996371;28;20030;-90
2021/01/28 12:10:57;;;;;;;15.07;7.25;;;;;;;;;;4983188;28;20121;-92
2021/01/28 12:13:25;;;;;;;10.25;5.18;;;;;;;;;;4980427;28;20039;-90
2021/01/28 12:15:51;;;;;;;10.98;5.60;;;;;;;;;;4985516;28;20022;-92
2021/01/28 12:18:17;;;;;;;14.05;5.43;;;;;;;;;;4992821;28;20034;-79
2021/01/28 12:20:43;;;;;;;11.43;6.13;;;;;;;;;;4994082;28;20026;-86
2021/01/28 12:23:09;;;;;;;10.52;5.60;;;;;;;;;;4993204;28;20049;-86
2021/01/28 12:25:36;;;;;;;11.38;5.70;;;;;;;;;;4987425;28;20118;-85
2021/01/28 12:28:03;;;;;;;10.13;5.82;;;;;;;;;;4982910;28;20125;-86
2021/01/28 12:30:29;;;;;;;12.13;5.35;;;;;;;;;;4991955;28;20053;-77
2021/01/28 12:32:55;;;;;;;12.48;5.93;;;;;;;;;;4992042;28;20042;-87
2021/01/28 12:35:22;;;;;;;10.30;5.32;;;;;;;;;;4991553;28;20042;-87
2021/01/28 12:37:48;;;;;;;9.43;4.97;;;;;;;;;;4991880;28;20106;-82
2021/01/28 12:40:15;;;;;;;13.75;6.05;;;;;;;;;;4989775;28;20041;-87
2021/01/28 12:42:42;;;;;;;13.70;7.53;;;;;;;;;;4992282;28;20113;-86
2021/01/28 12:45:08;;;;;;;10.55;5.57;;;;;;;;;;4992886;28;20061;-76
2021/01/28 12:47:34;;;;;;;14.98;6.15;;;;;;;;;;4992886;28;20113;-81
2021/01/28 12:50:01;;;;;;;11.07;5.68;;;;;;;;;;4994202;28;20472;-89
2021/01/28 12:52:28;;;;;;;14.52;6.75;;;;;;;;;;4992623;28;20027;-89
2021/01/28 12:54:54;;;;;;;13.00;6.65;;;;;;;;;;5009236;28;20088;-89
2021/01/28 12:57:20;;;;;;;12.05;5.65;;;;;;;;;;4993060;28;20023;-89
2021/01/28 12:59:46;;;;;;;13.18;6.13;;;;;;;;;;4993963;28;20533;-90
2021/01/28 13:02:13;;;;;;;15.48;8.25;;;;;;;;;;4992922;28;20022;-89
2021/01/28 13:04:39;;;;;;;14.98;6.93;;;;;;;;;;4992785;28;20070;-86
2021/01/28 13:07:05;;;;;;;15.38;7.60;;;;;;;;;;4992099;28;20492;-82
2021/01/28 13:09:31;;;;;;;18.42;9.20;;;;;;;;;;4991918;28;20034;-83
2021/01/28 13:11:57;;;;;;;14.02;5.85;;;;;;;;;;4994340;28;20027;-89
2021/01/28 13:14:23;;;;;;;15.90;6.97;;;;;;;;;;4992248;28;20034;-89
2021/01/28 13:16:49;;;;;;;14.50;5.97;;;;;;;;;;4992346;28;20463;-83
2021/01/28 13:19:15;;;;;;;16.15;7.28;;;;;;;;;;4992314;28;20030;-88
2021/01/28 13:21:41;;;;;;;19.02;6.63;;;;;;;;;;4992042;28;20034;-85
2021/01/28 13:24:08;;;;;;;16.35;7.20;;;;;;;;;;4992039;28;20121;-88
2021/01/28 13:26:34;;;;;;;12.88;6.53;;;;;;;;;;4991876;28;20061;-87
2021/01/28 13:31:54;;;;;;;12.20;6.28;;;;;;;;;;4961404;28;20051;-82
2021/01/28 13:34:20;;;;;;;13.35;5.93;;;;;;;;;;4956632;29;20038;-81
2021/01/28 13:36:46;;;;;;;15.77;7.63;;;;;;;;;;4942136;29;20583;-80
2021/01/28 13:39:12;;;;;;;13.88;6.85;;;;;;;;;;4958664;29;20027;-82
2021/01/28 13:41:38;;;;;;;14.48;6.40;;;;;;;;;;4941564;29;20030;-84
2021/01/28 13:44:04;;;;;;;14.73;7.20;;;;;;;;;;4941773;29;20039;-80
2021/01/28 13:46:30;;;;;;;13.43;6.50;;;;;;;;;;4959279;29;20055;-83
2021/01/28 13:48:56;;;;;;;15.70;7.45;;;;;;;;;;4942469;29;20031;-85
2021/01/28 13:51:22;;;;;;;18.02;8.30;;;;;;;;;;4959922;29;20027;-83
2021/01/28 13:53:48;;;;;;;22.40;7.85;;;;;;;;;;4948078;29;20042;-81
2021/01/28 13:56:14;;;;;;;19.17;7.38;;;;;;;;;;4968111;29;20050;-87
2021/01/28 13:58:41;;;;;;;19.05;8.35;;;;;;;;;;4942772;29;20027;-88
2021/01/28 14:01:07;;;;;;;23.58;9.75;;;;;;;;;;4958011;29;20034;-77
2021/01/28 14:03:33;;;;;;;20.02;9.18;;;;;;;;;;4940370;29;20034;-78
2021/01/28 14:05:59;;;;;;;23.58;9.43;;;;;;;;;;4940175;29;20067;-77
2021/01/28 14:08:25;;;;;;;23.25;9.90;;;;;;;;;;4939977;29;20034;-76
2021/01/28 14:10:51;;;;;;;21.20;9.70;;;;;;;;;;4940141;29;20035;-78
2021/01/28 14:13:18;;;;;;;17.95;8.40;;;;;;;;;;4939905;29;20047;-80
2021/01/28 14:15:44;;;;;;;23.27;8.57;;;;;;;;;;4940131;29;20034;-79
2021/01/28 14:18:15;;;;;;;18.42;9.07;;;;;;;;;;4940511;29;20098;-77
2021/01/28 14:20:44;;;;;;;23.05;9.63;;;;;;;;;;4940082;29;20057;-76
2021/01/28 14:23:11;;;;;;;23.42;9.98;;;;;;;;;;4940226;29;20027;-78
2021/01/28 14:25:38;;;;;;;18.25;8.55;;;;;;;;;;4956076;28;20041;-74
2021/01/28 14:28:04;;;;;;;26.92;11.60;;;;;;;;;;4977999;28;20045;-76
2021/01/28 14:30:31;;;;;;;20.08;9.27;;;;;;;;;;4978121;28;20038;-76
2021/01/28 14:32:57;;;;;;;23.13;10.57;;;;;;;;;;4977951;28;20531;-76
2021/01/28 14:35:23;;;;;;;20.88;9.63;;;;;;;;;;4996269;28;20027;-77
2021/01/28 14:37:50;;;;;;;16.58;7.43;;;;;;;;;;4995427;28;20030;-75
2021/01/28 14:40:17;;;;;;;18.90;7.20;;;;;;;;;;4977788;28;20109;-76
2021/01/28 14:42:43;;;;;;;24.23;7.95;;;;;;;;;;4977859;28;20022;-77
2021/01/28 14:45:10;;;;;;;18.65;7.93;;;;;;;;;;4995590;28;20022;-80
2021/01/28 14:47:36;;;;;;;22.10;9.23;;;;;;;;;;4977934;28;20057;-77
2021/01/28 14:50:02;;;;;;;19.80;9.02;;;;;;;;;;4977782;28;20031;-75
2021/01/28 14:52:29;;;;;;;19.50;8.63;;;;;;;;;;4977744;28;20026;-78
2021/01/28 14:54:55;;;;;;;20.48;8.80;;;;;;;;;;4977930;28;20030;-76
2021/01/28 14:57:21;;;;;;;18.10;7.43;;;;;;;;;;4976505;28;20023;-78